Time;durP1;ratioP1;P1;durP2;ratioP2;P2;SDS_P1;SDS_P2;PMS_P1;PMS_P2;Temp;Humidity;BMP_temperature;BMP_pressure;BME280_temperature;BME280_humidity;BME280_pressure;Samples;Min_cycle;Max_cycle;Signal;HPM_P1;HPM_P2
2023/11/10 00:00:54;;;;;;;7.72;2.33;;;;;;;;;;5106227;28;20126;-51
2023/11/10 00:03:21;;;;;;;5.15;2.50;;;;;;;;;;5105912;28;20104;-45
2023/11/10 00:05:47;;;;;;;6.97;2.55;;;;;;;;;;5105994;28;20024;-46
2023/11/10 00:08:15;;;;;;;7.97;2.72;;;;;;;;;;5105905;28;20016;-45
2023/11/10 00:10:43;;;;;;;9.43;2.63;;;;;;;;;;5105724;28;20331;-44
2023/11/10 00:13:09;;;;;;;4.93;2.60;;;;;;;;;;5105635;28;20034;-43
2023/11/10 00:15:36;;;;;;;7.60;2.55;;;;;;;;;;5106049;28;20068;-46
2023/11/10 00:18:03;;;;;;;7.45;2.47;;;;;;;;;;5105593;28;20159;-43
2023/11/10 00:20:31;;;;;;;7.45;2.25;;;;;;;;;;5105611;28;20332;-46
2023/11/10 00:22:58;;;;;;;6.25;2.13;;;;;;;;;;5105470;28;20036;-49
2023/11/10 00:25:24;;;;;;;6.57;2.22;;;;;;;;;;5105356;28;20105;-47
2023/11/10 00:27:51;;;;;;;7.63;2.65;;;;;;;;;;5105543;28;20314;-44
2023/11/10 00:30:19;;;;;;;5.82;2.63;;;;;;;;;;5105386;28;20028;-43
2023/11/10 00:32:45;;;;;;;6.30;2.60;;;;;;;;;;5105253;28;20227;-43
2023/11/10 00:35:12;;;;;;;5.47;2.35;;;;;;;;;;5105749;28;20304;-44
2023/11/10 00:37:38;;;;;;;5.38;2.35;;;;;;;;;;5105279;28;20193;-43
2023/11/10 00:40:07;;;;;;;3.90;2.20;;;;;;;;;;5105421;28;20040;-43
2023/11/10 00:42:33;;;;;;;6.35;2.08;;;;;;;;;;5105126;28;20039;-42
2023/11/10 00:45:00;;;;;;;5.13;2.47;;;;;;;;;;5105654;28;20246;-46
2023/11/10 00:47:28;;;;;;;8.50;2.50;;;;;;;;;;5104979;28;20369;-48
2023/11/10 00:49:54;;;;;;;7.22;2.83;;;;;;;;;;5105064;28;20123;-47
2023/11/10 00:52:21;;;;;;;7.30;2.47;;;;;;;;;;5105039;28;20076;-52
2023/11/10 00:54:48;;;;;;;9.57;2.70;;;;;;;;;;5105305;28;20056;-43
2023/11/10 00:57:15;;;;;;;8.88;2.60;;;;;;;;;;5103982;28;20028;-43
2023/11/10 00:59:41;;;;;;;10.10;2.70;;;;;;;;;;5105137;28;20095;-44
2023/11/10 01:02:08;;;;;;;4.55;2.30;;;;;;;;;;5104707;28;20027;-42
2023/11/10 01:04:35;;;;;;;6.82;2.38;;;;;;;;;;5105292;28;20036;-49
2023/11/10 01:07:01;;;;;;;5.78;2.20;;;;;;;;;;5104864;28;20079;-42
2023/11/10 01:09:28;;;;;;;4.70;2.20;;;;;;;;;;5104909;28;20261;-44
2023/11/10 01:11:54;;;;;;;6.22;2.35;;;;;;;;;;5104799;28;20038;-43
2023/11/10 01:14:22;;;;;;;7.03;2.42;;;;;;;;;;5104582;28;20020;-43
2023/11/10 01:16:48;;;;;;;4.28;2.28;;;;;;;;;;5104554;28;20019;-44
2023/11/10 01:19:15;;;;;;;9.23;3.20;;;;;;;;;;5104770;28;20069;-44
2023/11/10 01:21:42;;;;;;;13.13;3.67;;;;;;;;;;5104487;28;20019;-44
2023/11/10 01:24:08;;;;;;;7.75;3.67;;;;;;;;;;5104622;28;20032;-47
2023/11/10 01:26:35;;;;;;;5.20;3.28;;;;;;;;;;5104500;28;20028;-48
2023/11/10 01:29:02;;;;;;;5.78;3.30;;;;;;;;;;5104686;28;20024;-44
2023/11/10 01:31:30;;;;;;;6.50;3.67;;;;;;;;;;5098519;28;20051;-44
2023/11/10 01:33:56;;;;;;;6.25;3.30;;;;;;;;;;5089999;28;20040;-41
2023/11/10 01:36:23;;;;;;;6.28;4.03;;;;;;;;;;5104113;28;20042;-41
2023/11/10 01:38:51;;;;;;;7.35;3.38;;;;;;;;;;5103995;28;20058;-39
2023/11/10 01:41:20;;;;;;;5.25;3.25;;;;;;;;;;5104015;28;20308;-40
2023/11/10 01:43:47;;;;;;;4.75;3.03;;;;;;;;;;5104473;28;20208;-42
2023/11/10 01:46:40;;;;;;;7.82;3.17;;;;;;;;;;5099812;28;20043;-42
2023/11/10 01:49:07;;;;;;;7.35;3.00;;;;;;;;;;5095255;28;20085;-40
2023/11/10 01:51:34;;;;;;;15.00;13.48;;;;;;;;;;5083567;28;20226;-45
2023/11/10 01:54:00;;;;;;;11.77;7.80;;;;;;;;;;5083991;28;20228;-48
2023/11/10 01:56:28;;;;;;;9.32;4.50;;;;;;;;;;5083824;28;20031;-44
2023/11/10 01:58:55;;;;;;;9.20;3.30;;;;;;;;;;5084777;28;20032;-42
2023/11/10 02:01:22;;;;;;;6.80;3.33;;;;;;;;;;5094726;28;20028;-46
2023/11/10 02:03:49;;;;;;;6.00;3.28;;;;;;;;;;5085784;28;20079;-43
2023/11/10 02:06:16;;;;;;;8.27;4.22;;;;;;;;;;5094759;28;20032;-51
2023/11/10 02:08:42;;;;;;;18.63;10.63;;;;;;;;;;5098312;28;20383;-54
2023/11/10 02:11:09;;;;;;;18.55;12.43;;;;;;;;;;5087788;28;20021;-43
2023/11/10 02:13:38;;;;;;;16.02;11.77;;;;;;;;;;5087902;28;20043;-41
2023/11/10 02:16:05;;;;;;;13.88;8.32;;;;;;;;;;5087723;28;20028;-39
2023/11/10 02:18:32;;;;;;;12.98;7.30;;;;;;;;;;5087943;28;20025;-42
2023/11/10 02:20:59;;;;;;;10.18;5.68;;;;;;;;;;5087408;28;20039;-40
2023/11/10 02:23:26;;;;;;;10.23;5.25;;;;;;;;;;5087787;28;20033;-49
2023/11/10 02:25:53;;;;;;;7.03;4.18;;;;;;;;;;5087563;28;20243;-41
2023/11/10 02:28:20;;;;;;;5.38;4.28;;;;;;;;;;5087402;28;20032;-45
2023/11/10 02:30:46;;;;;;;9.90;4.38;;;;;;;;;;5097340;28;20081;-50
2023/11/10 02:33:13;;;;;;;14.00;4.28;;;;;;;;;;5089970;28;20111;-42
2023/11/10 02:35:39;;;;;;;9.80;4.50;;;;;;;;;;5087162;28;20036;-46
2023/11/10 02:38:08;;;;;;;10.35;4.85;;;;;;;;;;5089593;28;20312;-41
2023/11/10 02:40:34;;;;;;;12.02;4.63;;;;;;;;;;5096079;28;20077;-41
2023/11/10 02:43:02;;;;;;;6.47;4.30;;;;;;;;;;5095891;28;20024;-51
2023/11/10 02:45:28;;;;;;;7.55;4.10;;;;;;;;;;5096396;28;20024;-41
2023/11/10 02:47:55;;;;;;;8.20;3.65;;;;;;;;;;5087095;28;20084;-43
2023/11/10 02:50:22;;;;;;;6.05;3.60;;;;;;;;;;5086792;28;20055;-50
2023/11/10 02:52:48;;;;;;;9.70;2.95;;;;;;;;;;5087087;28;20047;-42
2023/11/10 02:55:15;;;;;;;7.03;3.22;;;;;;;;;;5087436;28;20246;-50
2023/11/10 02:57:41;;;;;;;7.22;2.83;;;;;;;;;;5086936;28;20320;-42
2023/11/10 03:00:09;;;;;;;8.90;2.97;;;;;;;;;;5087298;28;20044;-48
2023/11/10 03:02:36;;;;;;;7.22;2.83;;;;;;;;;;5099235;28;20312;-50
2023/11/10 03:05:03;;;;;;;5.32;2.75;;;;;;;;;;5099870;28;20086;-44
2023/11/10 03:07:30;;;;;;;5.30;2.72;;;;;;;;;;5101339;28;20034;-52
2023/11/10 03:09:58;;;;;;;7.72;2.83;;;;;;;;;;5095713;28;20289;-48
2023/11/10 03:12:25;;;;;;;5.93;2.50;;;;;;;;;;5102738;28;20044;-48
2023/11/10 03:14:52;;;;;;;7.90;3.08;;;;;;;;;;5096531;28;20083;-45
2023/11/10 03:17:19;;;;;;;6.10;3.10;;;;;;;;;;5106496;28;20023;-44
2023/11/10 03:19:45;;;;;;;6.93;2.60;;;;;;;;;;5106237;28;20137;-51
2023/11/10 03:22:13;;;;;;;6.65;3.00;;;;;;;;;;5106845;28;20030;-43
2023/11/10 03:24:40;;;;;;;5.57;3.05;;;;;;;;;;5107228;28;20081;-42
2023/11/10 03:27:08;;;;;;;5.00;2.92;;;;;;;;;;5106745;28;20028;-49
2023/11/10 03:29:35;;;;;;;4.95;2.80;;;;;;;;;;5106952;28;20149;-47
2023/11/10 03:32:03;;;;;;;5.47;2.70;;;;;;;;;;5106589;28;20040;-47
2023/11/10 03:34:31;;;;;;;6.78;3.00;;;;;;;;;;5107008;28;20231;-46
2023/11/10 03:36:58;;;;;;;3.65;2.55;;;;;;;;;;5106539;28;20019;-47
2023/11/10 03:39:24;;;;;;;6.80;3.00;;;;;;;;;;5106889;28;20044;-44
2023/11/10 03:41:51;;;;;;;5.50;2.80;;;;;;;;;;5106413;28;20032;-46
2023/11/10 03:44:18;;;;;;;3.95;2.85;;;;;;;;;;5106214;28;20032;-47
2023/11/10 03:46:44;;;;;;;6.93;2.85;;;;;;;;;;5106375;28;20111;-43
2023/11/10 03:49:12;;;;;;;5.28;2.58;;;;;;;;;;5106365;28;20048;-48
2023/11/10 03:51:39;;;;;;;5.18;2.70;;;;;;;;;;5106123;28;20050;-44
2023/11/10 03:54:05;;;;;;;3.85;2.53;;;;;;;;;;5106456;28;20074;-52
2023/11/10 03:56:35;;;;;;;7.30;3.00;;;;;;;;;;5106257;28;20034;-47
2023/11/10 03:59:04;;;;;;;5.13;2.65;;;;;;;;;;5106183;28;20038;-44
2023/11/10 04:01:33;;;;;;;5.47;2.95;;;;;;;;;;5106311;28;20027;-45
2023/11/10 04:04:01;;;;;;;7.45;3.00;;;;;;;;;;5106201;28;20038;-45
2023/11/10 04:06:27;;;;;;;5.57;2.60;;;;;;;;;;5106301;28;20039;-45
2023/11/10 04:08:54;;;;;;;4.65;2.67;;;;;;;;;;5106190;28;20024;-44
2023/11/10 04:11:21;;;;;;;4.38;2.50;;;;;;;;;;5105894;28;20063;-49
2023/11/10 04:13:47;;;;;;;9.90;2.97;;;;;;;;;;5105940;28;20046;-50
2023/11/10 04:16:21;;;;;;;4.57;2.67;;;;;;;;;;5105775;28;20048;-42
2023/11/10 04:18:49;;;;;;;6.63;2.80;;;;;;;;;;5105754;28;20035;-43
2023/11/10 04:21:20;;;;;;;4.55;2.88;;;;;;;;;;5105604;28;20242;-45
2023/11/10 04:23:47;;;;;;;4.25;2.53;;;;;;;;;;5105862;28;20032;-45
2023/11/10 04:26:14;;;;;;;7.72;2.47;;;;;;;;;;5105402;28;20020;-57
2023/11/10 04:28:41;;;;;;;7.65;3.10;;;;;;;;;;5105389;28;20038;-44
2023/11/10 04:31:13;;;;;;;6.45;2.67;;;;;;;;;;5105290;28;20227;-44
2023/11/10 04:33:40;;;;;;;6.80;2.75;;;;;;;;;;5105415;28;20087;-43
2023/11/10 04:36:07;;;;;;;4.53;2.38;;;;;;;;;;5105432;28;20091;-43
2023/11/10 04:38:34;;;;;;;3.80;2.60;;;;;;;;;;5105614;28;20039;-51
2023/11/10 04:41:04;;;;;;;7.40;2.85;;;;;;;;;;5105011;28;20138;-52
2023/11/10 04:43:32;;;;;;;3.38;2.42;;;;;;;;;;5105331;28;20208;-56
2023/11/10 04:45:58;;;;;;;3.20;2.88;;;;;;;;;;5105207;28;20024;-43
2023/11/10 04:48:28;;;;;;;6.32;2.80;;;;;;;;;;5105310;28;20028;-45
2023/11/10 04:50:55;;;;;;;5.25;2.63;;;;;;;;;;5105047;28;20056;-44
2023/11/10 04:53:21;;;;;;;6.78;2.63;;;;;;;;;;5105102;28;20036;-44
2023/11/10 04:55:48;;;;;;;3.30;2.40;;;;;;;;;;5104910;28;20026;-44
2023/11/10 04:58:15;;;;;;;6.18;2.40;;;;;;;;;;5105015;28;20036;-44
2023/11/10 05:00:42;;;;;;;5.72;2.60;;;;;;;;;;5105144;28;20091;-50
2023/11/10 05:03:10;;;;;;;3.55;2.35;;;;;;;;;;5102778;28;20242;-51
2023/11/10 05:05:36;;;;;;;6.22;2.58;;;;;;;;;;5105196;28;20059;-46
2023/11/10 05:08:03;;;;;;;5.68;2.67;;;;;;;;;;5104803;28;20027;-49
2023/11/10 05:10:30;;;;;;;5.07;2.58;;;;;;;;;;5104624;28;20051;-42
2023/11/10 05:12:57;;;;;;;4.32;2.30;;;;;;;;;;5104725;28;20389;-42
2023/11/10 05:15:24;;;;;;;4.95;2.45;;;;;;;;;;5104929;28;20035;-45
2023/11/10 05:17:50;;;;;;;6.63;2.45;;;;;;;;;;5104508;28;20026;-45
2023/11/10 05:20:17;;;;;;;3.72;2.60;;;;;;;;;;5104996;28;20040;-47
2023/11/10 05:22:44;;;;;;;4.75;2.58;;;;;;;;;;5104628;28;20303;-42
2023/11/10 05:25:11;;;;;;;3.17;2.45;;;;;;;;;;5104860;28;20024;-43
2023/11/10 05:27:39;;;;;;;6.88;2.33;;;;;;;;;;5104479;28;20324;-44
2023/11/10 05:30:09;;;;;;;2.40;2.13;;;;;;;;;;5104902;28;20331;-44
2023/11/10 05:32:44;;;;;;;5.10;2.20;;;;;;;;;;5103909;28;20020;-43
2023/11/10 05:35:11;;;;;;;6.28;2.65;;;;;;;;;;5120926;28;20039;-48
2023/11/10 05:37:38;;;;;;;3.30;2.72;;;;;;;;;;5121376;28;20319;-45
2023/11/10 05:40:05;;;;;;;4.38;2.45;;;;;;;;;;5104435;28;20040;-45
2023/11/10 05:42:32;;;;;;;7.00;2.53;;;;;;;;;;5104313;28;20215;-44
2023/11/10 05:44:59;;;;;;;3.35;2.47;;;;;;;;;;5104404;28;20030;-44
2023/11/10 05:47:25;;;;;;;5.07;2.70;;;;;;;;;;5104105;28;20036;-44
2023/11/10 05:49:52;;;;;;;5.15;2.60;;;;;;;;;;5104091;28;20066;-45
2023/11/10 05:52:19;;;;;;;4.93;2.58;;;;;;;;;;5105240;28;20035;-44
2023/11/10 05:54:46;;;;;;;4.78;2.35;;;;;;;;;;5118415;28;20051;-47
2023/11/10 05:57:14;;;;;;;5.85;2.45;;;;;;;;;;5104241;28;20020;-43
2023/11/10 05:59:41;;;;;;;3.13;2.20;;;;;;;;;;5104329;28;20046;-44
2023/11/10 06:02:09;;;;;;;3.47;2.50;;;;;;;;;;5103918;28;20232;-48
2023/11/10 06:04:36;;;;;;;6.13;2.40;;;;;;;;;;5104489;28;20390;-46
2023/11/10 06:07:02;;;;;;;3.15;2.45;;;;;;;;;;5104052;28;20016;-47
2023/11/10 06:09:29;;;;;;;8.52;2.65;;;;;;;;;;5104073;28;20059;-47
2023/11/10 06:11:58;;;;;;;3.78;2.55;;;;;;;;;;5103904;28;20087;-46
2023/11/10 06:14:24;;;;;;;8.13;2.83;;;;;;;;;;5103903;28;20034;-43
2023/11/10 06:16:51;;;;;;;6.20;2.20;;;;;;;;;;5103722;28;20040;-44
2023/11/10 06:19:18;;;;;;;6.10;2.70;;;;;;;;;;5105000;28;20082;-45
2023/11/10 06:21:44;;;;;;;5.28;2.45;;;;;;;;;;5124242;28;20046;-45
2023/11/10 06:24:11;;;;;;;3.72;2.17;;;;;;;;;;5124301;28;20035;-44
2023/11/10 06:26:38;;;;;;;5.57;2.30;;;;;;;;;;5124309;28;20032;-45
2023/11/10 06:29:05;;;;;;;5.25;2.63;;;;;;;;;;5124394;28;20020;-44
2023/11/10 06:31:32;;;;;;;6.63;2.60;;;;;;;;;;5124025;28;20058;-44
2023/11/10 06:33:59;;;;;;;7.10;2.60;;;;;;;;;;5124296;28;20101;-46
2023/11/10 06:36:26;;;;;;;6.97;2.70;;;;;;;;;;5124100;28;20026;-44
2023/11/10 06:38:52;;;;;;;6.78;2.42;;;;;;;;;;5124024;28;20035;-42
2023/11/10 06:41:19;;;;;;;8.15;2.72;;;;;;;;;;5123917;28;20031;-45
2023/11/10 06:43:46;;;;;;;4.63;2.53;;;;;;;;;;5124189;28;20020;-47
2023/11/10 06:46:20;;;;;;;6.30;2.53;;;;;;;;;;5123854;28;20312;-47
2023/11/10 06:48:47;;;;;;;6.50;2.55;;;;;;;;;;5123999;28;20028;-46
2023/11/10 06:51:15;;;;;;;4.47;2.50;;;;;;;;;;5123961;28;20051;-48
2023/11/10 06:53:41;;;;;;;4.18;2.25;;;;;;;;;;5123921;28;20116;-51
2023/11/10 06:56:09;;;;;;;5.00;2.65;;;;;;;;;;5127729;28;20102;-52
2023/11/10 06:58:36;;;;;;;7.90;2.67;;;;;;;;;;5127768;28;20030;-49
2023/11/10 07:01:03;;;;;;;4.68;2.42;;;;;;;;;;5126670;28;20045;-42
2023/11/10 07:03:30;;;;;;;2.60;2.38;;;;;;;;;;5107501;28;20032;-44
2023/11/10 07:05:57;;;;;;;7.20;2.50;;;;;;;;;;5107163;28;20073;-43
2023/11/10 07:08:25;;;;;;;6.20;2.50;;;;;;;;;;5107244;28;20233;-44
2023/11/10 07:10:57;;;;;;;7.28;2.60;;;;;;;;;;5107061;28;20028;-42
2023/11/10 07:13:26;;;;;;;5.25;2.28;;;;;;;;;;5107058;28;20296;-43
2023/11/10 07:15:54;;;;;;;5.13;2.47;;;;;;;;;;5106955;28;20032;-47
2023/11/10 07:18:22;;;;;;;4.65;2.50;;;;;;;;;;5106916;28;20227;-43
2023/11/10 07:20:49;;;;;;;4.28;2.28;;;;;;;;;;5106695;28;20030;-43
2023/11/10 07:23:15;;;;;;;4.10;2.50;;;;;;;;;;5106882;28;20040;-49
2023/11/10 07:25:42;;;;;;;4.20;2.15;;;;;;;;;;5106862;28;20023;-43
2023/11/10 07:28:10;;;;;;;6.40;2.58;;;;;;;;;;5106790;28;20016;-43
2023/11/10 07:30:39;;;;;;;4.22;2.50;;;;;;;;;;5106696;28;20036;-53
2023/11/10 07:33:07;;;;;;;4.60;2.50;;;;;;;;;;5106903;28;20319;-44
2023/11/10 07:35:34;;;;;;;5.18;2.35;;;;;;;;;;5106545;28;20091;-45
2023/11/10 07:38:01;;;;;;;5.68;2.70;;;;;;;;;;5106548;28;20040;-43
2023/11/10 07:40:27;;;;;;;3.35;2.10;;;;;;;;;;5106341;28;20035;-43
2023/11/10 07:42:54;;;;;;;6.20;2.58;;;;;;;;;;5106401;28;20035;-45
2023/11/10 07:45:21;;;;;;;4.20;2.30;;;;;;;;;;5106379;28;20032;-50
2023/11/10 07:47:51;;;;;;;5.30;2.60;;;;;;;;;;5106344;28;20042;-43
2023/11/10 07:50:19;;;;;;;6.53;2.90;;;;;;;;;;5106081;28;20051;-48
2023/11/10 07:52:49;;;;;;;6.72;2.70;;;;;;;;;;5106361;28;20335;-46
2023/11/10 07:55:16;;;;;;;5.93;2.80;;;;;;;;;;5106766;28;20057;-51
2023/11/10 07:57:44;;;;;;;6.57;2.70;;;;;;;;;;5106072;28;20023;-47
2023/11/10 08:00:18;;;;;;;5.32;2.30;;;;;;;;;;5106494;28;20055;-48
2023/11/10 08:02:46;;;;;;;7.00;2.95;;;;;;;;;;5106083;28;20028;-43
2023/11/10 08:05:13;;;;;;;5.07;2.65;;;;;;;;;;5106380;28;20059;-43
2023/11/10 08:07:39;;;;;;;3.72;2.55;;;;;;;;;;5105501;28;20054;-51
2023/11/10 08:10:06;;;;;;;4.20;2.47;;;;;;;;;;5106684;28;20035;-44
2023/11/10 08:12:33;;;;;;;4.50;2.40;;;;;;;;;;5105759;28;20338;-43
2023/11/10 08:15:00;;;;;;;3.88;2.15;;;;;;;;;;5106243;28;20036;-50
2023/11/10 08:17:27;;;;;;;11.20;2.40;;;;;;;;;;5105865;28;20114;-42
2023/11/10 08:19:54;;;;;;;5.45;2.38;;;;;;;;;;5105953;28;20032;-42
2023/11/10 08:22:22;;;;;;;6.75;2.40;;;;;;;;;;5105672;28;20065;-46
2023/11/10 08:24:50;;;;;;;4.53;2.45;;;;;;;;;;5106363;28;20077;-48
2023/11/10 08:27:16;;;;;;;6.10;2.22;;;;;;;;;;5105423;28;20028;-42
2023/11/10 08:29:43;;;;;;;4.47;2.10;;;;;;;;;;5105951;28;20036;-46
2023/11/10 08:32:09;;;;;;;6.22;1.63;;;;;;;;;;5105525;28;20020;-44
2023/11/10 08:34:36;;;;;;;5.53;1.88;;;;;;;;;;5105645;28;20032;-43
2023/11/10 08:37:03;;;;;;;13.20;2.33;;;;;;;;;;5105451;28;20263;-46
2023/11/10 08:39:29;;;;;;;19.13;2.65;;;;;;;;;;5105581;28;20027;-44
2023/11/10 08:41:56;;;;;;;26.15;3.20;;;;;;;;;;5105120;28;20339;-44
2023/11/10 08:44:23;;;;;;;25.73;3.88;;;;;;;;;;5105530;28;20032;-43
2023/11/10 08:46:53;;;;;;;22.13;2.83;;;;;;;;;;5105489;28;20016;-43
2023/11/10 08:49:20;;;;;;;23.48;2.63;;;;;;;;;;5104936;28;20052;-46
2023/11/10 08:51:46;;;;;;;12.40;2.10;;;;;;;;;;5105411;28;20028;-45
2023/11/10 08:54:13;;;;;;;14.85;2.33;;;;;;;;;;5105281;28;20335;-44
2023/11/10 08:56:39;;;;;;;13.32;2.05;;;;;;;;;;5104904;28;20036;-44
2023/11/10 08:59:06;;;;;;;11.57;2.15;;;;;;;;;;5105252;28;20036;-47
2023/11/10 09:01:33;;;;;;;11.25;2.13;;;;;;;;;;5104811;28;20024;-51
2023/11/10 09:04:00;;;;;;;8.57;1.70;;;;;;;;;;5104990;28;20035;-43
2023/11/10 09:06:27;;;;;;;7.57;1.83;;;;;;;;;;5104977;28;20028;-46
2023/11/10 09:08:53;;;;;;;4.20;1.45;;;;;;;;;;5105056;28;20027;-43
2023/11/10 09:11:20;;;;;;;5.82;1.40;;;;;;;;;;5104730;28;20028;-44
2023/11/10 09:13:47;;;;;;;8.80;1.55;;;;;;;;;;5104818;28;20236;-47
2023/11/10 09:16:13;;;;;;;3.35;1.33;;;;;;;;;;5104641;28;20020;-44
2023/11/10 09:18:40;;;;;;;3.00;1.13;;;;;;;;;;5103870;28;20035;-43
2023/11/10 09:21:07;;;;;;;3.30;1.15;;;;;;;;;;5104480;28;20378;-42
2023/11/10 09:23:34;;;;;;;4.78;1.48;;;;;;;;;;5104638;28;20023;-41
2023/11/10 09:26:03;;;;;;;5.93;1.02;;;;;;;;;;5104471;28;20052;-41
2023/11/10 09:28:31;;;;;;;3.25;1.30;;;;;;;;;;5104348;28;20028;-43
2023/11/10 09:30:59;;;;;;;3.95;1.20;;;;;;;;;;5104483;28;20060;-46
2023/11/10 09:33:26;;;;;;;2.70;1.10;;;;;;;;;;5104440;28;20035;-45
2023/11/10 09:35:53;;;;;;;2.97;1.23;;;;;;;;;;5104394;28;20031;-43
2023/11/10 09:38:20;;;;;;;3.15;1.20;;;;;;;;;;5104593;28;20087;-43
2023/11/10 09:40:46;;;;;;;2.58;1.00;;;;;;;;;;5104199;28;20035;-48
2023/11/10 09:43:16;;;;;;;5.80;1.00;;;;;;;;;;5104105;28;20040;-54
2023/11/10 09:45:51;;;;;;;1.92;1.13;;;;;;;;;;5104352;28;20024;-44
2023/11/10 09:48:21;;;;;;;3.97;1.15;;;;;;;;;;5104041;28;20062;-50
2023/11/10 09:50:52;;;;;;;3.13;1.10;;;;;;;;;;5104104;28;20055;-51
2023/11/10 09:53:19;;;;;;;2.55;1.17;;;;;;;;;;5104487;28;20036;-48
2023/11/10 09:55:46;;;;;;;3.95;1.70;;;;;;;;;;5103988;28;20328;-50
2023/11/10 09:58:12;;;;;;;2.17;1.40;;;;;;;;;;5104196;28;20193;-54
2023/11/10 10:00:39;;;;;;;4.65;1.70;;;;;;;;;;5104044;28;20039;-51
2023/11/10 10:03:06;;;;;;;2.92;1.60;;;;;;;;;;5102707;28;20031;-53
2023/11/10 10:05:32;;;;;;;4.13;1.60;;;;;;;;;;5104160;28;20335;-44
2023/11/10 10:07:59;;;;;;;2.53;1.58;;;;;;;;;;5103925;28;20087;-42
2023/11/10 10:10:26;;;;;;;6.10;1.80;;;;;;;;;;5103749;28;20219;-52
2023/11/10 10:12:53;;;;;;;5.07;1.60;;;;;;;;;;5104031;28;20042;-43
2023/11/10 10:15:28;;;;;;;3.40;1.50;;;;;;;;;;5103868;28;20081;-46
2023/11/10 10:17:55;;;;;;;4.55;1.60;;;;;;;;;;5103694;28;20083;-44
2023/11/10 10:20:22;;;;;;;2.55;1.55;;;;;;;;;;5103779;28;20345;-44
2023/11/10 10:22:49;;;;;;;3.55;1.60;;;;;;;;;;5103825;28;20324;-43
2023/11/10 10:25:20;;;;;;;2.45;1.58;;;;;;;;;;5103628;28;20024;-53
2023/11/10 10:27:46;;;;;;;3.72;1.85;;;;;;;;;;5103789;28;20024;-50
2023/11/10 10:30:13;;;;;;;6.40;1.75;;;;;;;;;;5106500;28;20043;-49
2023/11/10 10:32:40;;;;;;;4.45;1.70;;;;;;;;;;5107797;28;20065;-49
2023/11/10 10:35:07;;;;;;;7.80;1.80;;;;;;;;;;5107687;28;20036;-42
2023/11/10 10:37:35;;;;;;;5.53;1.80;;;;;;;;;;5107711;28;20087;-43
2023/11/10 10:40:02;;;;;;;6.57;2.25;;;;;;;;;;5107870;28;20069;-45
2023/11/10 10:42:34;;;;;;;8.38;2.22;;;;;;;;;;5111708;28;20019;-46
2023/11/10 10:45:07;;;;;;;6.32;2.50;;;;;;;;;;5097923;28;20028;-42
2023/11/10 10:47:38;;;;;;;7.80;1.90;;;;;;;;;;5105833;28;20024;-43
2023/11/10 10:50:10;;;;;;;8.47;2.10;;;;;;;;;;5107522;28;20051;-48
2023/11/10 10:52:37;;;;;;;6.53;2.20;;;;;;;;;;5107053;28;20297;-42
2023/11/10 10:55:07;;;;;;;7.22;2.58;;;;;;;;;;5107832;28;20027;-47
2023/11/10 10:57:34;;;;;;;7.15;2.53;;;;;;;;;;5106817;28;20044;-43
2023/11/10 11:00:03;;;;;;;8.57;2.97;;;;;;;;;;5107535;28;20073;-48
2023/11/10 11:02:30;;;;;;;7.78;2.20;;;;;;;;;;5099679;28;20028;-44
2023/11/10 11:05:21;;;;;;;8.18;2.80;;;;;;;;;;5097133;28;20133;-41
2023/11/10 11:08:03;;;;;;;10.00;2.55;;;;;;;;;;5098468;28;20264;-42
2023/11/10 11:10:41;;;;;;;11.10;2.97;;;;;;;;;;5107032;28;20043;-48
2023/11/10 11:13:07;;;;;;;10.18;3.10;;;;;;;;;;5107000;28;20024;-44
2023/11/10 11:15:45;;;;;;;6.05;3.25;;;;;;;;;;5107218;28;20032;-45
2023/11/10 11:18:22;;;;;;;13.13;3.55;;;;;;;;;;5112160;28;20062;-48
2023/11/10 11:20:49;;;;;;;9.18;3.88;;;;;;;;;;5109255;28;20024;-44
2023/11/10 11:23:16;;;;;;;13.13;3.95;;;;;;;;;;5106811;28;20096;-42
2023/11/10 11:25:43;;;;;;;13.85;3.90;;;;;;;;;;5105279;28;20058;-40
2023/11/10 11:28:09;;;;;;;16.42;5.22;;;;;;;;;;5100787;28;20016;-50
2023/11/10 11:30:41;;;;;;;18.83;5.63;;;;;;;;;;5105680;28;20434;-42
2023/11/10 11:33:11;;;;;;;14.03;4.87;;;;;;;;;;5106693;28;20043;-44
2023/11/10 11:35:38;;;;;;;9.00;4.82;;;;;;;;;;5106491;28;20573;-50
2023/11/10 11:38:06;;;;;;;8.88;4.13;;;;;;;;;;5106434;28;20096;-43
2023/11/10 11:40:36;;;;;;;13.40;3.97;;;;;;;;;;5105090;28;20197;-45
2023/11/10 11:43:10;;;;;;;6.90;3.83;;;;;;;;;;5104253;28;20031;-44
2023/11/10 11:45:41;;;;;;;8.73;4.10;;;;;;;;;;5104788;28;20024;-44
2023/11/10 11:48:09;;;;;;;11.20;4.35;;;;;;;;;;5105046;28;20036;-47
2023/11/10 11:50:36;;;;;;;9.02;3.95;;;;;;;;;;5105203;28;20060;-46
2023/11/10 11:53:03;;;;;;;10.13;4.55;;;;;;;;;;5105624;28;20016;-45
2023/11/10 11:55:30;;;;;;;9.07;4.85;;;;;;;;;;5105795;28;20108;-46
2023/11/10 11:57:58;;;;;;;11.68;4.25;;;;;;;;;;5106128;28;20024;-43
2023/11/10 12:00:24;;;;;;;11.43;4.00;;;;;;;;;;5106113;28;20028;-43
2023/11/10 12:02:55;;;;;;;7.07;4.22;;;;;;;;;;5104550;28;20028;-44
2023/11/10 12:05:22;;;;;;;11.02;4.40;;;;;;;;;;5096414;28;20036;-41
2023/11/10 12:07:48;;;;;;;6.78;3.92;;;;;;;;;;5096662;28;20193;-42
2023/11/10 12:10:15;;;;;;;14.68;4.53;;;;;;;;;;5095958;28;20043;-43
2023/11/10 12:12:45;;;;;;;8.35;4.63;;;;;;;;;;5094433;28;20028;-42
2023/11/10 12:15:12;;;;;;;12.63;4.80;;;;;;;;;;5095369;28;20020;-49
2023/11/10 12:17:39;;;;;;;10.82;4.43;;;;;;;;;;5094596;28;20023;-44
2023/11/10 12:20:08;;;;;;;8.82;4.20;;;;;;;;;;5096723;28;20224;-43
2023/11/10 12:22:35;;;;;;;9.68;4.25;;;;;;;;;;5095339;28;20305;-42
2023/11/10 12:25:02;;;;;;;8.63;3.83;;;;;;;;;;5094568;28;20077;-41
2023/11/10 12:27:29;;;;;;;12.00;4.00;;;;;;;;;;5096116;28;20016;-45
2023/11/10 12:29:55;;;;;;;11.65;4.32;;;;;;;;;;5095257;28;20024;-43
2023/11/10 12:32:22;;;;;;;7.88;3.90;;;;;;;;;;5094917;28;20382;-45
2023/11/10 12:34:48;;;;;;;8.45;3.75;;;;;;;;;;5094574;28;20020;-42
2023/11/10 12:37:18;;;;;;;10.25;4.00;;;;;;;;;;5093888;28;20032;-43
2023/11/10 12:39:45;;;;;;;9.55;3.90;;;;;;;;;;5094720;28;20016;-44
2023/11/10 12:42:13;;;;;;;8.85;3.80;;;;;;;;;;5095781;28;20039;-46
2023/11/10 12:44:39;;;;;;;7.22;4.00;;;;;;;;;;5094264;28;20024;-42
2023/11/10 12:47:06;;;;;;;9.32;3.72;;;;;;;;;;5094198;28;20086;-47
2023/11/10 12:49:33;;;;;;;7.53;3.92;;;;;;;;;;5095695;28;20051;-44
2023/11/10 12:52:03;;;;;;;9.10;3.78;;;;;;;;;;5094097;28;20079;-47
2023/11/10 12:54:30;;;;;;;8.35;3.13;;;;;;;;;;5093773;28;20253;-45
2023/11/10 12:56:57;;;;;;;5.90;3.05;;;;;;;;;;5093777;28;20020;-43
2023/11/10 12:59:29;;;;;;;4.50;2.72;;;;;;;;;;5094844;28;20042;-46
2023/11/10 13:01:56;;;;;;;3.30;2.35;;;;;;;;;;5094432;28;20378;-42
2023/11/10 13:04:25;;;;;;;6.15;2.67;;;;;;;;;;5093685;28;20028;-42
2023/11/10 13:06:53;;;;;;;3.50;2.55;;;;;;;;;;5094894;28;20016;-43
2023/11/10 13:09:20;;;;;;;5.88;2.58;;;;;;;;;;5090004;28;20103;-43
2023/11/10 13:11:46;;;;;;;7.45;2.70;;;;;;;;;;5084560;28;20267;-46
2023/11/10 13:14:15;;;;;;;6.65;2.55;;;;;;;;;;5084629;28;20054;-43
2023/11/10 13:16:42;;;;;;;5.55;2.40;;;;;;;;;;5084266;28;20055;-45
2023/11/10 13:19:10;;;;;;;8.32;2.80;;;;;;;;;;5084687;28;20074;-42
2023/11/10 13:21:38;;;;;;;6.93;2.45;;;;;;;;;;5084279;28;20092;-55
2023/11/10 13:24:05;;;;;;;12.80;3.03;;;;;;;;;;5084115;28;20040;-43
2023/11/10 13:26:33;;;;;;;5.97;2.50;;;;;;;;;;5084348;28;20032;-43
2023/11/10 13:28:59;;;;;;;6.07;2.60;;;;;;;;;;5084478;28;20066;-43
2023/11/10 13:31:28;;;;;;;6.15;2.40;;;;;;;;;;5084008;28;20028;-49
2023/11/10 13:33:58;;;;;;;5.88;2.72;;;;;;;;;;5084540;28;20292;-47
2023/11/10 13:36:26;;;;;;;9.75;3.08;;;;;;;;;;5084379;28;20031;-43
2023/11/10 13:38:52;;;;;;;6.63;2.33;;;;;;;;;;5084052;28;20036;-42
2023/11/10 13:41:19;;;;;;;5.32;2.40;;;;;;;;;;5083921;28;20036;-49
2023/11/10 13:43:45;;;;;;;6.32;2.25;;;;;;;;;;5084161;28;20046;-42
2023/11/10 13:46:12;;;;;;;4.78;2.35;;;;;;;;;;5089791;28;20030;-44
2023/11/10 13:48:39;;;;;;;3.53;2.20;;;;;;;;;;5096383;28;20301;-46
2023/11/10 13:51:07;;;;;;;3.88;2.35;;;;;;;;;;5083710;28;20048;-46
2023/11/10 13:53:34;;;;;;;4.47;2.72;;;;;;;;;;5095615;28;20032;-42
2023/11/10 13:56:01;;;;;;;6.28;2.65;;;;;;;;;;5104012;28;20051;-42
2023/11/10 13:58:27;;;;;;;3.95;2.78;;;;;;;;;;5104215;28;20228;-45
2023/11/10 14:00:54;;;;;;;5.95;2.40;;;;;;;;;;5096399;28;20023;-43
2023/11/10 14:03:21;;;;;;;3.88;2.60;;;;;;;;;;5103897;28;20091;-43
2023/11/10 14:05:47;;;;;;;7.40;2.65;;;;;;;;;;5100307;28;20016;-47
2023/11/10 14:08:15;;;;;;;13.48;3.30;;;;;;;;;;5103794;28;20316;-45
2023/11/10 14:10:43;;;;;;;9.85;2.72;;;;;;;;;;5104257;28;20212;-44
2023/11/10 14:13:11;;;;;;;8.55;3.17;;;;;;;;;;5103720;28;20080;-48
2023/11/10 14:15:37;;;;;;;12.25;3.20;;;;;;;;;;5102512;28;20032;-51
2023/11/10 14:18:06;;;;;;;12.48;3.30;;;;;;;;;;5103733;28;20039;-44
2023/11/10 14:20:32;;;;;;;10.90;3.47;;;;;;;;;;5103781;28;20028;-44
2023/11/10 14:22:59;;;;;;;7.93;2.60;;;;;;;;;;5103565;28;20036;-45
2023/11/10 14:25:26;;;;;;;9.00;3.20;;;;;;;;;;5103838;28;20052;-43
2023/11/10 14:27:53;;;;;;;7.05;2.92;;;;;;;;;;5103774;28;20024;-46
2023/11/10 14:30:19;;;;;;;10.82;3.20;;;;;;;;;;5103633;28;20249;-54
2023/11/10 14:32:46;;;;;;;9.45;3.17;;;;;;;;;;5103782;28;20032;-46
2023/11/10 14:35:13;;;;;;;11.45;2.95;;;;;;;;;;5104465;28;20020;-43
2023/11/10 14:37:41;;;;;;;5.72;2.85;;;;;;;;;;5103670;28;20343;-44
2023/11/10 14:40:16;;;;;;;9.23;2.92;;;;;;;;;;5104027;28;20342;-44
2023/11/10 14:42:46;;;;;;;8.70;2.65;;;;;;;;;;5103626;28;20069;-43